Cannon Air Force Base
KCVS : now visible

Airfield :











YOU CAN JOIN US ON...

 
LOGIN :

Register | Disclaimer

   EN    FR    IT 

 









Legend :    VFR   Marginal VFR   IFR   Intensive IFR   Very Intensive IFR
Visi :
Ceiling :
>= 8 km
>= 3000ft
5 to 8 km
1000 to 3000 ft
1500m to 5 km
500 to 1000 ft
800 to 1500m
200 to 500 ft
< 800m
< 200 ft
Symbols :   Thunderstorms  Fog  Heavy snow  Heavy precipitations  Wind > 20 kt






- Airport Elevation : 4295 ft


KCVS - Cannon Air Force Base

CURRENT METAR :
  • 052355Z AUTO 23011KT 10SM CLR 19/M11 A2998 RMK AO2 SLP137 T01871113 10214 20172 57012 $

EXPIRED METARs :
  • 052255Z AUTO 25015G21KT 10SM CLR 21/M13 A2999 RMK AO2 SLP130 T02101131 $
  • 052155Z AUTO 24013G23KT 10SM CLR 21/M13 A2999 RMK AO2 PK WND 23033/29 SLP127 T02111130 $

TAF AMD TAF KCVS
Valid from the 05 at 23:00 until the 07 at 00:00 UTC


052300Z 0523/0624 24010G15KT 9999 SKC QNH2999INS
BECMG 0600/0601 22009KT 9999 SKC QNH2985INS
TEMPO 0608/0614 WSCONDS
BECMG 0615/0616 26010G15KT 9999 SCT250 QNH2987INS
BECMG 0617/0618 26015G25KT 9999 SCT250 QNH2974INS TX20/0622Z TN06/0613Z LAST NO AMDS AFT 0523 NEXT 0610
KZAB FIR / North America



MET'MAP, your aeronautical weather chart ! - Copyright ORBIFLY December 2007 - Disclaimer

ORBIFLY MET'MAP TEAM :

Programming & Development : Alexandra Zaïnal
Original concept : Baudouin d'Aumeries
Technical & hardware support : Manuel Goepfert
Assistance : Marc-Olivier Méhu




SOURCES & CREDITS :

   NOAA       Earth
Advisory